Astrodome, Texas
Current Conditions -  °F | °C
As of 2:15 PM on Sunday 23 Nov 2014 (Local Time) from KMCJ Reporting Station
Clear Clear  
Wind Chill: 81°   Ceiling: Unl
Heat Index: 81°   Visibility: 10mi
Dew Point: 50°   Wind: 7mph
Humidity: 34%   Direction: 220°SW
Pressure: 29.51"   Gusts: NA
Location:  29.6867°N, 95.4345°W
Report Text: KMCJ 232015Z AUTO 22006KT 10SM CLR 27/10 A2951 RMK AO1
Loading
Personal Weather Stations






























Interactive Weather Map New forecast layout! Learn more

10-Day Weather Forecast

Advertisements
Track Severe Weather on mobile